sensor_id;sensor_type;location;lat;lon;timestamp;P1;durP1;ratioP1;P2;durP2;ratioP2
70899;SDS011;67902;52.154;5.430;2023-04-06T00:02:20;21.50;;;9.45;;
70899;SDS011;67902;52.154;5.430;2023-04-06T00:04:47;19.35;;;8.98;;
70899;SDS011;67902;52.154;5.430;2023-04-06T00:07:13;21.27;;;8.45;;
70899;SDS011;67902;52.154;5.430;2023-04-06T00:09:39;22.10;;;9.35;;
70899;SDS011;67902;52.154;5.430;2023-04-06T00:12:06;21.77;;;9.07;;
70899;SDS011;67902;52.154;5.430;2023-04-06T00:14:32;19.25;;;8.55;;
70899;SDS011;67902;52.154;5.430;2023-04-06T00:16:59;19.83;;;9.05;;
70899;SDS011;67902;52.154;5.430;2023-04-06T00:19:25;20.25;;;8.20;;
70899;SDS011;67902;52.154;5.430;2023-04-06T00:21:52;19.77;;;9.02;;
70899;SDS011;67902;52.154;5.430;2023-04-06T00:24:18;21.38;;;8.45;;
70899;SDS011;67902;52.154;5.430;2023-04-06T00:26:45;19.23;;;8.82;;
70899;SDS011;67902;52.154;5.430;2023-04-06T00:29:12;18.65;;;8.73;;
70899;SDS011;67902;52.154;5.430;2023-04-06T00:31:38;19.42;;;8.38;;
70899;SDS011;67902;52.154;5.430;2023-04-06T00:34:05;22.92;;;8.32;;
70899;SDS011;67902;52.154;5.430;2023-04-06T00:36:32;24.10;;;8.52;;
70899;SDS011;67902;52.154;5.430;2023-04-06T00:38:58;20.73;;;8.70;;
70899;SDS011;67902;52.154;5.430;2023-04-06T00:41:25;25.65;;;8.05;;
70899;SDS011;67902;52.154;5.430;2023-04-06T00:43:51;19.85;;;9.10;;
70899;SDS011;67902;52.154;5.430;2023-04-06T00:46:19;20.55;;;8.70;;
70899;SDS011;67902;52.154;5.430;2023-04-06T00:48:46;19.73;;;7.72;;
70899;SDS011;67902;52.154;5.430;2023-04-06T00:51:12;24.00;;;8.80;;
70899;SDS011;67902;52.154;5.430;2023-04-06T00:53:39;18.58;;;7.35;;
70899;SDS011;67902;52.154;5.430;2023-04-06T00:56:06;18.50;;;7.78;;
70899;SDS011;67902;52.154;5.430;2023-04-06T00:58:33;18.83;;;7.97;;
70899;SDS011;67902;52.154;5.430;2023-04-06T01:00:59;20.08;;;7.63;;
70899;SDS011;67902;52.154;5.430;2023-04-06T01:03:26;19.33;;;8.23;;
70899;SDS011;67902;52.154;5.430;2023-04-06T01:05:53;17.73;;;8.43;;
70899;SDS011;67902;52.154;5.430;2023-04-06T01:08:24;16.95;;;7.55;;
70899;SDS011;67902;52.154;5.430;2023-04-06T01:10:51;20.02;;;7.65;;
70899;SDS011;67902;52.154;5.430;2023-04-06T01:13:17;22.67;;;7.90;;
70899;SDS011;67902;52.154;5.430;2023-04-06T01:15:44;19.45;;;8.00;;
70899;SDS011;67902;52.154;5.430;2023-04-06T01:18:11;22.58;;;8.73;;
70899;SDS011;67902;52.154;5.430;2023-04-06T01:20:38;24.30;;;8.15;;
70899;SDS011;67902;52.154;5.430;2023-04-06T01:23:04;17.60;;;8.13;;
70899;SDS011;67902;52.154;5.430;2023-04-06T01:25:31;21.08;;;8.40;;
70899;SDS011;67902;52.154;5.430;2023-04-06T01:27:57;17.67;;;7.20;;
70899;SDS011;67902;52.154;5.430;2023-04-06T01:30:24;19.15;;;8.38;;
70899;SDS011;67902;52.154;5.430;2023-04-06T01:32:50;18.80;;;8.10;;
70899;SDS011;67902;52.154;5.430;2023-04-06T01:35:17;21.50;;;8.32;;
70899;SDS011;67902;52.154;5.430;2023-04-06T01:37:45;20.42;;;8.30;;
70899;SDS011;67902;52.154;5.430;2023-04-06T01:40:11;18.33;;;8.63;;
70899;SDS011;67902;52.154;5.430;2023-04-06T01:42:39;16.52;;;7.32;;
70899;SDS011;67902;52.154;5.430;2023-04-06T01:45:06;15.73;;;6.57;;
70899;SDS011;67902;52.154;5.430;2023-04-06T01:47:33;15.30;;;7.22;;
70899;SDS011;67902;52.154;5.430;2023-04-06T01:49:59;16.48;;;6.85;;
70899;SDS011;67902;52.154;5.430;2023-04-06T01:52:26;15.93;;;7.47;;
70899;SDS011;67902;52.154;5.430;2023-04-06T01:54:52;19.58;;;6.90;;
70899;SDS011;67902;52.154;5.430;2023-04-06T01:57:19;17.88;;;7.13;;
70899;SDS011;67902;52.154;5.430;2023-04-06T01:59:46;15.85;;;7.30;;
70899;SDS011;67902;52.154;5.430;2023-04-06T02:02:12;24.73;;;9.55;;
70899;SDS011;67902;52.154;5.430;2023-04-06T02:04:39;22.10;;;9.77;;
70899;SDS011;67902;52.154;5.430;2023-04-06T02:07:05;20.20;;;8.50;;
70899;SDS011;67902;52.154;5.430;2023-04-06T02:09:32;24.50;;;8.52;;
70899;SDS011;67902;52.154;5.430;2023-04-06T02:11:58;21.30;;;8.82;;
70899;SDS011;67902;52.154;5.430;2023-04-06T02:14:25;25.48;;;8.95;;
70899;SDS011;67902;52.154;5.430;2023-04-06T02:16:52;17.33;;;7.53;;
70899;SDS011;67902;52.154;5.430;2023-04-06T02:19:19;19.92;;;8.00;;
70899;SDS011;67902;52.154;5.430;2023-04-06T02:21:45;20.83;;;8.23;;
70899;SDS011;67902;52.154;5.430;2023-04-06T02:24:12;15.82;;;7.75;;
70899;SDS011;67902;52.154;5.430;2023-04-06T02:26:38;20.05;;;7.80;;
70899;SDS011;67902;52.154;5.430;2023-04-06T02:29:05;22.70;;;7.47;;
70899;SDS011;67902;52.154;5.430;2023-04-06T02:31:32;24.48;;;7.93;;
70899;SDS011;67902;52.154;5.430;2023-04-06T02:33:58;20.40;;;8.73;;
70899;SDS011;67902;52.154;5.430;2023-04-06T02:36:25;21.25;;;8.52;;
70899;SDS011;67902;52.154;5.430;2023-04-06T02:38:52;16.77;;;7.45;;
70899;SDS011;67902;52.154;5.430;2023-04-06T02:41:18;17.27;;;7.15;;
70899;SDS011;67902;52.154;5.430;2023-04-06T02:43:44;20.05;;;6.80;;
70899;SDS011;67902;52.154;5.430;2023-04-06T02:46:11;17.60;;;7.22;;
70899;SDS011;67902;52.154;5.430;2023-04-06T02:48:37;18.70;;;7.75;;
70899;SDS011;67902;52.154;5.430;2023-04-06T02:51:04;19.08;;;7.20;;
70899;SDS011;67902;52.154;5.430;2023-04-06T02:53:30;20.40;;;7.72;;
70899;SDS011;67902;52.154;5.430;2023-04-06T02:55:57;19.02;;;7.63;;
70899;SDS011;67902;52.154;5.430;2023-04-06T02:58:23;18.08;;;7.72;;
70899;SDS011;67902;52.154;5.430;2023-04-06T03:00:49;19.27;;;7.40;;
70899;SDS011;67902;52.154;5.430;2023-04-06T03:03:16;18.10;;;7.07;;
70899;SDS011;67902;52.154;5.430;2023-04-06T03:05:43;17.98;;;7.63;;
70899;SDS011;67902;52.154;5.430;2023-04-06T03:08:09;16.48;;;6.43;;
70899;SDS011;67902;52.154;5.430;2023-04-06T03:10:35;19.67;;;7.72;;
70899;SDS011;67902;52.154;5.430;2023-04-06T03:13:02;18.92;;;7.70;;
70899;SDS011;67902;52.154;5.430;2023-04-06T03:15:28;19.13;;;7.63;;
70899;SDS011;67902;52.154;5.430;2023-04-06T03:17:55;19.60;;;7.43;;
70899;SDS011;67902;52.154;5.430;2023-04-06T03:20:25;17.55;;;7.30;;
70899;SDS011;67902;52.154;5.430;2023-04-06T03:22:51;17.63;;;6.85;;
70899;SDS011;67902;52.154;5.430;2023-04-06T03:25:17;14.57;;;6.30;;
70899;SDS011;67902;52.154;5.430;2023-04-06T03:27:44;14.65;;;6.57;;
70899;SDS011;67902;52.154;5.430;2023-04-06T03:30:10;19.52;;;7.25;;
70899;SDS011;67902;52.154;5.430;2023-04-06T03:32:37;16.65;;;6.70;;
70899;SDS011;67902;52.154;5.430;2023-04-06T03:35:04;19.17;;;8.10;;
70899;SDS011;67902;52.154;5.430;2023-04-06T03:37:30;17.63;;;7.03;;
70899;SDS011;67902;52.154;5.430;2023-04-06T03:39:57;17.20;;;7.47;;
70899;SDS011;67902;52.154;5.430;2023-04-06T03:42:23;17.20;;;7.60;;
70899;SDS011;67902;52.154;5.430;2023-04-06T03:44:50;19.30;;;7.40;;
70899;SDS011;67902;52.154;5.430;2023-04-06T03:47:16;19.15;;;6.90;;
70899;SDS011;67902;52.154;5.430;2023-04-06T03:49:43;16.98;;;6.57;;
70899;SDS011;67902;52.154;5.430;2023-04-06T03:52:09;17.33;;;6.65;;
70899;SDS011;67902;52.154;5.430;2023-04-06T03:54:35;17.02;;;7.50;;
70899;SDS011;67902;52.154;5.430;2023-04-06T03:57:02;15.07;;;6.63;;
70899;SDS011;67902;52.154;5.430;2023-04-06T03:59:29;16.08;;;7.10;;
70899;SDS011;67902;52.154;5.430;2023-04-06T04:01:56;14.63;;;6.47;;
70899;SDS011;67902;52.154;5.430;2023-04-06T04:04:23;16.83;;;6.85;;
70899;SDS011;67902;52.154;5.430;2023-04-06T04:06:49;17.40;;;7.53;;
70899;SDS011;67902;52.154;5.430;2023-04-06T04:09:16;18.52;;;6.88;;
70899;SDS011;67902;52.154;5.430;2023-04-06T04:11:42;17.52;;;7.38;;
70899;SDS011;67902;52.154;5.430;2023-04-06T04:14:08;21.67;;;7.50;;
70899;SDS011;67902;52.154;5.430;2023-04-06T04:16:35;17.17;;;6.90;;
70899;SDS011;67902;52.154;5.430;2023-04-06T04:19:02;21.77;;;6.57;;
70899;SDS011;67902;52.154;5.430;2023-04-06T04:21:29;15.65;;;6.85;;
70899;SDS011;67902;52.154;5.430;2023-04-06T04:23:56;15.73;;;7.25;;
70899;SDS011;67902;52.154;5.430;2023-04-06T04:26:23;16.95;;;6.72;;
70899;SDS011;67902;52.154;5.430;2023-04-06T04:28:49;17.48;;;6.68;;
70899;SDS011;67902;52.154;5.430;2023-04-06T04:31:16;19.92;;;7.85;;
70899;SDS011;67902;52.154;5.430;2023-04-06T04:33:44;14.57;;;6.45;;
70899;SDS011;67902;52.154;5.430;2023-04-06T04:36:10;20.35;;;6.95;;
70899;SDS011;67902;52.154;5.430;2023-04-06T04:38:37;19.85;;;7.07;;
70899;SDS011;67902;52.154;5.430;2023-04-06T04:41:04;16.73;;;7.10;;
70899;SDS011;67902;52.154;5.430;2023-04-06T04:43:30;14.82;;;6.68;;
70899;SDS011;67902;52.154;5.430;2023-04-06T04:45:58;19.05;;;7.85;;
70899;SDS011;67902;52.154;5.430;2023-04-06T04:48:25;17.15;;;6.90;;
70899;SDS011;67902;52.154;5.430;2023-04-06T04:50:52;18.25;;;7.38;;
70899;SDS011;67902;52.154;5.430;2023-04-06T04:53:18;20.25;;;7.95;;
70899;SDS011;67902;52.154;5.430;2023-04-06T04:55:44;20.45;;;7.13;;
70899;SDS011;67902;52.154;5.430;2023-04-06T04:58:11;22.20;;;8.02;;
70899;SDS011;67902;52.154;5.430;2023-04-06T05:00:45;17.70;;;8.27;;
70899;SDS011;67902;52.154;5.430;2023-04-06T05:03:16;18.77;;;7.25;;
70899;SDS011;67902;52.154;5.430;2023-04-06T05:05:48;17.73;;;7.35;;
70899;SDS011;67902;52.154;5.430;2023-04-06T05:08:15;20.50;;;7.65;;
70899;SDS011;67902;52.154;5.430;2023-04-06T05:10:41;20.88;;;8.02;;
70899;SDS011;67902;52.154;5.430;2023-04-06T07:58:53;26.73;;;11.27;;
70899;SDS011;67902;52.154;5.430;2023-04-06T08:17:34;30.77;;;12.15;;
70899;SDS011;67902;52.154;5.430;2023-04-06T08:37:24;28.42;;;12.43;;
70899;SDS011;67902;52.154;5.430;2023-04-06T10:52:45;16.52;;;7.15;;
70899;SDS011;67902;52.154;5.430;2023-04-06T10:55:13;17.52;;;5.38;;
70899;SDS011;67902;52.154;5.430;2023-04-06T10:57:40;14.27;;;5.53;;
70899;SDS011;67902;52.154;5.430;2023-04-06T11:00:07;14.88;;;5.78;;
70899;SDS011;67902;52.154;5.430;2023-04-06T11:02:37;11.75;;;5.10;;
70899;SDS011;67902;52.154;5.430;2023-04-06T11:05:04;14.13;;;5.07;;
70899;SDS011;67902;52.154;5.430;2023-04-06T11:07:32;13.93;;;5.60;;
70899;SDS011;67902;52.154;5.430;2023-04-06T11:09:59;14.30;;;5.25;;
70899;SDS011;67902;52.154;5.430;2023-04-06T11:12:41;10.35;;;4.18;;
70899;SDS011;67902;52.154;5.430;2023-04-06T11:15:09;12.07;;;4.78;;
70899;SDS011;67902;52.154;5.430;2023-04-06T11:17:36;12.63;;;4.90;;
70899;SDS011;67902;52.154;5.430;2023-04-06T11:20:03;11.88;;;4.65;;
70899;SDS011;67902;52.154;5.430;2023-04-06T11:22:30;11.25;;;4.68;;
70899;SDS011;67902;52.154;5.430;2023-04-06T11:25:06;11.70;;;4.60;;
70899;SDS011;67902;52.154;5.430;2023-04-06T11:27:38;9.73;;;4.30;;
70899;SDS011;67902;52.154;5.430;2023-04-06T11:30:06;12.95;;;4.45;;
70899;SDS011;67902;52.154;5.430;2023-04-06T11:35:12;12.30;;;4.47;;
70899;SDS011;67902;52.154;5.430;2023-04-06T11:37:46;9.05;;;3.60;;
70899;SDS011;67902;52.154;5.430;2023-04-06T11:40:14;10.00;;;3.95;;
70899;SDS011;67902;52.154;5.430;2023-04-06T11:42:40;10.43;;;4.22;;
70899;SDS011;67902;52.154;5.430;2023-04-06T11:45:07;10.82;;;4.53;;
70899;SDS011;67902;52.154;5.430;2023-04-06T11:47:35;14.15;;;4.80;;
70899;SDS011;67902;52.154;5.430;2023-04-06T11:52:38;13.55;;;4.90;;
70899;SDS011;67902;52.154;5.430;2023-04-06T11:55:16;9.80;;;3.85;;
70899;SDS011;67902;52.154;5.430;2023-04-06T11:57:44;9.85;;;4.38;;
70899;SDS011;67902;52.154;5.430;2023-04-06T12:00:11;12.35;;;5.07;;
70899;SDS011;67902;52.154;5.430;2023-04-06T12:02:38;16.27;;;4.95;;
70899;SDS011;67902;52.154;5.430;2023-04-06T12:05:06;13.13;;;4.43;;
70899;SDS011;67902;52.154;5.430;2023-04-06T12:07:33;12.50;;;4.93;;
70899;SDS011;67902;52.154;5.430;2023-04-06T12:10:00;9.57;;;3.90;;
70899;SDS011;67902;52.154;5.430;2023-04-06T12:12:28;11.85;;;5.13;;
70899;SDS011;67902;52.154;5.430;2023-04-06T12:14:55;10.85;;;4.20;;
70899;SDS011;67902;52.154;5.430;2023-04-06T12:17:22;14.05;;;5.38;;
70899;SDS011;67902;52.154;5.430;2023-04-06T12:19:49;10.32;;;4.90;;
70899;SDS011;67902;52.154;5.430;2023-04-06T12:22:15;13.18;;;5.20;;
70899;SDS011;67902;52.154;5.430;2023-04-06T12:24:42;12.73;;;5.10;;
70899;SDS011;67902;52.154;5.430;2023-04-06T12:27:08;14.45;;;4.85;;
70899;SDS011;67902;52.154;5.430;2023-04-06T12:29:40;13.13;;;5.30;;
70899;SDS011;67902;52.154;5.430;2023-04-06T12:32:06;10.20;;;4.75;;
70899;SDS011;67902;52.154;5.430;2023-04-06T12:34:32;14.23;;;5.75;;
70899;SDS011;67902;52.154;5.430;2023-04-06T12:36:59;15.60;;;6.25;;
70899;SDS011;67902;52.154;5.430;2023-04-06T12:39:27;16.90;;;6.00;;
70899;SDS011;67902;52.154;5.430;2023-04-06T12:41:53;15.38;;;6.05;;
70899;SDS011;67902;52.154;5.430;2023-04-06T12:44:20;12.88;;;5.85;;
70899;SDS011;67902;52.154;5.430;2023-04-06T12:46:46;14.07;;;5.75;;
70899;SDS011;67902;52.154;5.430;2023-04-06T12:49:13;13.50;;;5.07;;
70899;SDS011;67902;52.154;5.430;2023-04-06T12:51:39;17.20;;;5.43;;
70899;SDS011;67902;52.154;5.430;2023-04-06T12:54:06;16.27;;;5.80;;
70899;SDS011;67902;52.154;5.430;2023-04-06T12:56:32;12.60;;;5.22;;
70899;SDS011;67902;52.154;5.430;2023-04-06T12:58:59;15.15;;;5.85;;
70899;SDS011;67902;52.154;5.430;2023-04-06T13:01:25;12.80;;;4.15;;
70899;SDS011;67902;52.154;5.430;2023-04-06T13:03:55;15.45;;;6.15;;
70899;SDS011;67902;52.154;5.430;2023-04-06T13:06:22;12.50;;;5.93;;
70899;SDS011;67902;52.154;5.430;2023-04-06T13:08:48;14.10;;;5.78;;
70899;SDS011;67902;52.154;5.430;2023-04-06T13:11:16;12.23;;;5.93;;
70899;SDS011;67902;52.154;5.430;2023-04-06T13:13:42;15.07;;;6.38;;
70899;SDS011;67902;52.154;5.430;2023-04-06T13:16:08;15.32;;;6.18;;
70899;SDS011;67902;52.154;5.430;2023-04-06T13:18:35;15.82;;;6.13;;
70899;SDS011;67902;52.154;5.430;2023-04-06T13:21:05;15.80;;;6.68;;
70899;SDS011;67902;52.154;5.430;2023-04-06T13:23:32;15.48;;;7.18;;
70899;SDS011;67902;52.154;5.430;2023-04-06T13:26:00;11.02;;;3.92;;
70899;SDS011;67902;52.154;5.430;2023-04-06T13:28:27;13.50;;;6.03;;
70899;SDS011;67902;52.154;5.430;2023-04-06T13:30:54;13.35;;;5.00;;
70899;SDS011;67902;52.154;5.430;2023-04-06T13:33:21;13.40;;;5.97;;
70899;SDS011;67902;52.154;5.430;2023-04-06T13:35:48;15.50;;;6.18;;
70899;SDS011;67902;52.154;5.430;2023-04-06T13:38:14;15.35;;;6.45;;
70899;SDS011;67902;52.154;5.430;2023-04-06T13:40:42;17.58;;;6.57;;
70899;SDS011;67902;52.154;5.430;2023-04-06T13:43:09;12.05;;;5.43;;
70899;SDS011;67902;52.154;5.430;2023-04-06T13:45:35;13.65;;;5.68;;
70899;SDS011;67902;52.154;5.430;2023-04-06T13:48:03;14.65;;;6.60;;
70899;SDS011;67902;52.154;5.430;2023-04-06T13:50:29;14.75;;;6.25;;
70899;SDS011;67902;52.154;5.430;2023-04-06T13:52:56;14.20;;;5.88;;
70899;SDS011;67902;52.154;5.430;2023-04-06T13:55:22;12.68;;;6.18;;
70899;SDS011;67902;52.154;5.430;2023-04-06T13:57:52;13.15;;;5.07;;
70899;SDS011;67902;52.154;5.430;2023-04-06T14:00:18;19.17;;;6.88;;
70899;SDS011;67902;52.154;5.430;2023-04-06T14:02:45;12.88;;;5.80;;
70899;SDS011;67902;52.154;5.430;2023-04-06T14:05:12;15.65;;;6.57;;
70899;SDS011;67902;52.154;5.430;2023-04-06T14:07:38;14.45;;;6.80;;
70899;SDS011;67902;52.154;5.430;2023-04-06T14:10:05;13.40;;;5.38;;
70899;SDS011;67902;52.154;5.430;2023-04-06T14:12:40;16.08;;;6.30;;
70899;SDS011;67902;52.154;5.430;2023-04-06T14:15:08;15.40;;;6.47;;
70899;SDS011;67902;52.154;5.430;2023-04-06T14:17:35;17.52;;;7.00;;
70899;SDS011;67902;52.154;5.430;2023-04-06T14:20:02;16.02;;;7.00;;
70899;SDS011;67902;52.154;5.430;2023-04-06T14:22:28;14.57;;;5.97;;
70899;SDS011;67902;52.154;5.430;2023-04-06T14:24:55;16.30;;;6.57;;
70899;SDS011;67902;52.154;5.430;2023-04-06T14:27:22;16.50;;;6.38;;
70899;SDS011;67902;52.154;5.430;2023-04-06T14:29:50;12.07;;;5.75;;
70899;SDS011;67902;52.154;5.430;2023-04-06T14:32:16;18.65;;;6.53;;
70899;SDS011;67902;52.154;5.430;2023-04-06T14:34:43;17.85;;;6.95;;
70899;SDS011;67902;52.154;5.430;2023-04-06T14:37:09;18.10;;;5.97;;
70899;SDS011;67902;52.154;5.430;2023-04-06T14:39:37;16.73;;;6.70;;
70899;SDS011;67902;52.154;5.430;2023-04-06T14:42:03;14.80;;;5.90;;
70899;SDS011;67902;52.154;5.430;2023-04-06T14:44:32;17.30;;;7.32;;
70899;SDS011;67902;52.154;5.430;2023-04-06T14:46:59;18.48;;;7.22;;
70899;SDS011;67902;52.154;5.430;2023-04-06T14:49:26;16.77;;;6.93;;
70899;SDS011;67902;52.154;5.430;2023-04-06T14:51:52;15.43;;;6.72;;
70899;SDS011;67902;52.154;5.430;2023-04-06T14:56:54;17.17;;;7.47;;
70899;SDS011;67902;52.154;5.430;2023-04-06T14:59:20;16.75;;;6.25;;
70899;SDS011;67902;52.154;5.430;2023-04-06T15:01:47;15.85;;;6.80;;
70899;SDS011;67902;52.154;5.430;2023-04-06T15:04:13;15.40;;;6.70;;
70899;SDS011;67902;52.154;5.430;2023-04-06T15:06:40;16.85;;;6.97;;
70899;SDS011;67902;52.154;5.430;2023-04-06T15:09:06;15.98;;;6.18;;
70899;SDS011;67902;52.154;5.430;2023-04-06T15:11:33;17.20;;;6.85;;
70899;SDS011;67902;52.154;5.430;2023-04-06T15:14:00;16.77;;;6.50;;
70899;SDS011;67902;52.154;5.430;2023-04-06T15:16:26;14.70;;;5.72;;
70899;SDS011;67902;52.154;5.430;2023-04-06T15:18:53;15.57;;;6.40;;
70899;SDS011;67902;52.154;5.430;2023-04-06T15:21:19;20.10;;;7.65;;
70899;SDS011;67902;52.154;5.430;2023-04-06T15:23:46;17.42;;;6.57;;
70899;SDS011;67902;52.154;5.430;2023-04-06T15:26:13;13.85;;;6.35;;
70899;SDS011;67902;52.154;5.430;2023-04-06T15:28:39;16.25;;;7.07;;
70899;SDS011;67902;52.154;5.430;2023-04-06T15:31:13;16.70;;;6.85;;
70899;SDS011;67902;52.154;5.430;2023-04-06T15:33:46;14.48;;;6.63;;
70899;SDS011;67902;52.154;5.430;2023-04-06T15:36:31;16.77;;;7.15;;
70899;SDS011;67902;52.154;5.430;2023-04-06T15:38:58;22.88;;;8.27;;
70899;SDS011;67902;52.154;5.430;2023-04-06T15:41:25;16.08;;;6.65;;
70899;SDS011;67902;52.154;5.430;2023-04-06T15:43:52;15.55;;;7.07;;
70899;SDS011;67902;52.154;5.430;2023-04-06T15:46:19;18.35;;;6.70;;
70899;SDS011;67902;52.154;5.430;2023-04-06T15:51:22;18.08;;;7.10;;
70899;SDS011;67902;52.154;5.430;2023-04-06T15:53:49;20.48;;;7.65;;
70899;SDS011;67902;52.154;5.430;2023-04-06T15:56:16;15.80;;;7.07;;
70899;SDS011;67902;52.154;5.430;2023-04-06T15:58:42;17.80;;;7.35;;
70899;SDS011;67902;52.154;5.430;2023-04-06T16:01:16;17.65;;;7.93;;
70899;SDS011;67902;52.154;5.430;2023-04-06T16:06:11;16.25;;;6.18;;
70899;SDS011;67902;52.154;5.430;2023-04-06T16:08:38;17.30;;;7.32;;
70899;SDS011;67902;52.154;5.430;2023-04-06T16:13:32;16.77;;;6.55;;
70899;SDS011;67902;52.154;5.430;2023-04-06T16:15:58;16.73;;;6.55;;
70899;SDS011;67902;52.154;5.430;2023-04-06T16:18:25;19.25;;;6.78;;
70899;SDS011;67902;52.154;5.430;2023-04-06T16:20:52;18.80;;;6.90;;
70899;SDS011;67902;52.154;5.430;2023-04-06T16:47:31;14.85;;;5.75;;
70899;SDS011;67902;52.154;5.430;2023-04-06T16:49:58;16.10;;;7.57;;
70899;SDS011;67902;52.154;5.430;2023-04-06T16:52:44;14.05;;;6.28;;
70899;SDS011;67902;52.154;5.430;2023-04-06T16:55:10;16.35;;;6.35;;
70899;SDS011;67902;52.154;5.430;2023-04-06T16:57:37;16.02;;;6.97;;
70899;SDS011;67902;52.154;5.430;2023-04-06T17:00:05;19.40;;;6.60;;
70899;SDS011;67902;52.154;5.430;2023-04-06T17:02:32;13.50;;;5.45;;
70899;SDS011;67902;52.154;5.430;2023-04-06T17:05:02;14.00;;;6.70;;
70899;SDS011;67902;52.154;5.430;2023-04-06T17:07:29;13.13;;;5.90;;
70899;SDS011;67902;52.154;5.430;2023-04-06T17:09:58;13.77;;;6.07;;
70899;SDS011;67902;52.154;5.430;2023-04-06T17:12:27;13.75;;;6.43;;
70899;SDS011;67902;52.154;5.430;2023-04-06T17:14:54;15.30;;;6.72;;
70899;SDS011;67902;52.154;5.430;2023-04-06T17:17:20;14.48;;;6.45;;
70899;SDS011;67902;52.154;5.430;2023-04-06T17:19:47;13.50;;;6.47;;
70899;SDS011;67902;52.154;5.430;2023-04-06T17:22:13;15.25;;;6.60;;
70899;SDS011;67902;52.154;5.430;2023-04-06T17:24:46;13.95;;;6.80;;
70899;SDS011;67902;52.154;5.430;2023-04-06T17:29:40;12.80;;;5.55;;
70899;SDS011;67902;52.154;5.430;2023-04-06T17:32:06;13.73;;;6.50;;
70899;SDS011;67902;52.154;5.430;2023-04-06T17:34:33;12.77;;;5.80;;
70899;SDS011;67902;52.154;5.430;2023-04-06T17:37:00;18.33;;;6.97;;
70899;SDS011;67902;52.154;5.430;2023-04-06T17:39:27;16.73;;;7.10;;
70899;SDS011;67902;52.154;5.430;2023-04-06T17:41:53;14.02;;;7.53;;
70899;SDS011;67902;52.154;5.430;2023-04-06T17:44:19;18.55;;;7.30;;
70899;SDS011;67902;52.154;5.430;2023-04-06T17:46:46;15.32;;;6.90;;
70899;SDS011;67902;52.154;5.430;2023-04-06T17:49:12;16.08;;;6.88;;
70899;SDS011;67902;52.154;5.430;2023-04-06T17:51:39;15.25;;;7.00;;
70899;SDS011;67902;52.154;5.430;2023-04-06T17:54:05;12.85;;;6.45;;
70899;SDS011;67902;52.154;5.430;2023-04-06T17:56:32;15.88;;;6.80;;
70899;SDS011;67902;52.154;5.430;2023-04-06T17:58:58;12.25;;;6.32;;
70899;SDS011;67902;52.154;5.430;2023-04-06T18:01:24;15.27;;;7.18;;
70899;SDS011;67902;52.154;5.430;2023-04-06T18:03:51;13.38;;;6.35;;
70899;SDS011;67902;52.154;5.430;2023-04-06T18:06:18;18.90;;;7.25;;
70899;SDS011;67902;52.154;5.430;2023-04-06T18:08:44;13.90;;;6.63;;
70899;SDS011;67902;52.154;5.430;2023-04-06T18:11:15;13.63;;;6.50;;
70899;SDS011;67902;52.154;5.430;2023-04-06T18:13:46;15.60;;;7.63;;
70899;SDS011;67902;52.154;5.430;2023-04-06T18:16:13;14.13;;;6.93;;
70899;SDS011;67902;52.154;5.430;2023-04-06T18:18:42;14.05;;;6.25;;
70899;SDS011;67902;52.154;5.430;2023-04-06T18:21:09;14.25;;;7.28;;
70899;SDS011;67902;52.154;5.430;2023-04-06T18:23:35;15.18;;;6.65;;
70899;SDS011;67902;52.154;5.430;2023-04-06T18:26:03;16.35;;;7.10;;
70899;SDS011;67902;52.154;5.430;2023-04-06T18:28:31;14.77;;;7.47;;
70899;SDS011;67902;52.154;5.430;2023-04-06T18:30:58;16.25;;;6.95;;
70899;SDS011;67902;52.154;5.430;2023-04-06T18:33:25;12.98;;;6.60;;
70899;SDS011;67902;52.154;5.430;2023-04-06T18:35:54;16.50;;;6.90;;
70899;SDS011;67902;52.154;5.430;2023-04-06T18:38:25;13.48;;;6.10;;
70899;SDS011;67902;52.154;5.430;2023-04-06T18:40:51;13.63;;;6.65;;
70899;SDS011;67902;52.154;5.430;2023-04-06T18:43:18;15.50;;;7.90;;
70899;SDS011;67902;52.154;5.430;2023-04-06T18:45:44;15.55;;;6.72;;
70899;SDS011;67902;52.154;5.430;2023-04-06T18:48:11;15.80;;;7.38;;
70899;SDS011;67902;52.154;5.430;2023-04-06T18:50:38;14.00;;;6.82;;
70899;SDS011;67902;52.154;5.430;2023-04-06T18:53:05;14.98;;;7.25;;
70899;SDS011;67902;52.154;5.430;2023-04-06T18:55:32;14.68;;;6.88;;
70899;SDS011;67902;52.154;5.430;2023-04-06T18:57:59;14.00;;;7.22;;
70899;SDS011;67902;52.154;5.430;2023-04-06T19:00:25;13.68;;;7.18;;
70899;SDS011;67902;52.154;5.430;2023-04-06T19:02:52;13.98;;;7.63;;
70899;SDS011;67902;52.154;5.430;2023-04-06T19:05:19;15.70;;;7.43;;
70899;SDS011;67902;52.154;5.430;2023-04-06T19:07:47;15.05;;;8.00;;
70899;SDS011;67902;52.154;5.430;2023-04-06T19:10:17;18.63;;;7.55;;
70899;SDS011;67902;52.154;5.430;2023-04-06T19:12:44;16.73;;;8.20;;
70899;SDS011;67902;52.154;5.430;2023-04-06T19:15:12;16.40;;;8.23;;
70899;SDS011;67902;52.154;5.430;2023-04-06T19:17:39;17.48;;;7.97;;
70899;SDS011;67902;52.154;5.430;2023-04-06T19:20:06;17.48;;;8.10;;
70899;SDS011;67902;52.154;5.430;2023-04-06T19:22:36;16.38;;;7.90;;
70899;SDS011;67902;52.154;5.430;2023-04-06T19:25:03;16.27;;;8.52;;
70899;SDS011;67902;52.154;5.430;2023-04-06T19:27:30;17.67;;;9.02;;
70899;SDS011;67902;52.154;5.430;2023-04-06T19:29:57;17.58;;;9.35;;
70899;SDS011;67902;52.154;5.430;2023-04-06T19:32:25;16.85;;;8.63;;
70899;SDS011;67902;52.154;5.430;2023-04-06T19:34:51;17.30;;;8.68;;
70899;SDS011;67902;52.154;5.430;2023-04-06T19:37:18;18.08;;;8.15;;
70899;SDS011;67902;52.154;5.430;2023-04-06T19:39:44;16.90;;;9.13;;
70899;SDS011;67902;52.154;5.430;2023-04-06T19:42:12;16.95;;;8.77;;
70899;SDS011;67902;52.154;5.430;2023-04-06T19:44:40;16.77;;;8.57;;
70899;SDS011;67902;52.154;5.430;2023-04-06T19:47:07;19.95;;;9.05;;
70899;SDS011;67902;52.154;5.430;2023-04-06T19:49:33;17.95;;;8.80;;
70899;SDS011;67902;52.154;5.430;2023-04-06T19:52:00;17.58;;;9.15;;
70899;SDS011;67902;52.154;5.430;2023-04-06T19:54:26;23.02;;;9.52;;
70899;SDS011;67902;52.154;5.430;2023-04-06T19:56:52;15.32;;;8.93;;
70899;SDS011;67902;52.154;5.430;2023-04-06T19:59:19;19.15;;;9.82;;
70899;SDS011;67902;52.154;5.430;2023-04-06T20:01:46;18.50;;;9.18;;
70899;SDS011;67902;52.154;5.430;2023-04-06T20:04:13;16.00;;;9.00;;
70899;SDS011;67902;52.154;5.430;2023-04-06T20:06:39;17.40;;;8.70;;
70899;SDS011;67902;52.154;5.430;2023-04-06T20:09:06;18.55;;;9.88;;
70899;SDS011;67902;52.154;5.430;2023-04-06T20:11:33;16.48;;;9.07;;
70899;SDS011;67902;52.154;5.430;2023-04-06T20:14:01;19.65;;;9.98;;
70899;SDS011;67902;52.154;5.430;2023-04-06T20:16:27;18.42;;;9.82;;
70899;SDS011;67902;52.154;5.430;2023-04-06T20:18:54;19.30;;;10.07;;
70899;SDS011;67902;52.154;5.430;2023-04-06T20:21:20;19.52;;;9.77;;
70899;SDS011;67902;52.154;5.430;2023-04-06T20:23:47;17.42;;;9.52;;
70899;SDS011;67902;52.154;5.430;2023-04-06T20:26:13;19.23;;;10.40;;
70899;SDS011;67902;52.154;5.430;2023-04-06T20:28:40;18.50;;;9.70;;
70899;SDS011;67902;52.154;5.430;2023-04-06T20:31:07;19.77;;;10.40;;
70899;SDS011;67902;52.154;5.430;2023-04-06T20:33:33;19.17;;;9.85;;
70899;SDS011;67902;52.154;5.430;2023-04-06T20:36:00;21.05;;;10.65;;
70899;SDS011;67902;52.154;5.430;2023-04-06T20:38:27;21.38;;;10.18;;
70899;SDS011;67902;52.154;5.430;2023-04-06T20:40:57;20.60;;;10.38;;
70899;SDS011;67902;52.154;5.430;2023-04-06T20:43:25;20.25;;;10.35;;
70899;SDS011;67902;52.154;5.430;2023-04-06T20:45:57;22.77;;;10.70;;
70899;SDS011;67902;52.154;5.430;2023-04-06T20:48:24;22.08;;;11.20;;